sensor_id;sensor_type;location;lat;lon;timestamp;pressure;altitude;pressure_sealevel;temperature;humidity
47430;BME280;33181;49.246;7.372;2023-04-07T00:01:32;98768.50;;;8.65;85.94
47430;BME280;33181;49.246;7.372;2023-04-07T00:03:58;98767.75;;;8.63;85.66
47430;BME280;33181;49.246;7.372;2023-04-07T00:06:23;98773.72;;;8.65;85.71
47430;BME280;33181;49.246;7.372;2023-04-07T00:08:50;98773.00;;;8.63;85.50
47430;BME280;33181;49.246;7.372;2023-04-07T00:11:15;98770.59;;;8.60;85.46
47430;BME280;33181;49.246;7.372;2023-04-07T00:13:41;98769.75;;;8.59;85.43
47430;BME280;33181;49.246;7.372;2023-04-07T00:16:07;98767.28;;;8.58;85.45
47430;BME280;33181;49.246;7.372;2023-04-07T00:18:33;98763.09;;;8.55;85.40
47430;BME280;33181;49.246;7.372;2023-04-07T00:20:59;98756.06;;;8.56;85.06
47430;BME280;33181;49.246;7.372;2023-04-07T00:23:25;98752.50;;;8.57;85.42
47430;BME280;33181;49.246;7.372;2023-04-07T00:25:51;98755.84;;;8.59;85.50
47430;BME280;33181;49.246;7.372;2023-04-07T00:28:17;98752.50;;;8.57;85.46
47430;BME280;33181;49.246;7.372;2023-04-07T00:30:43;98749.88;;;8.57;85.36
47430;BME280;33181;49.246;7.372;2023-04-07T00:33:08;98748.00;;;8.59;85.32
47430;BME280;33181;49.246;7.372;2023-04-07T00:35:34;98744.41;;;8.60;85.19
47430;BME280;33181;49.246;7.372;2023-04-07T00:38:00;98747.63;;;8.64;85.39
47430;BME280;33181;49.246;7.372;2023-04-07T00:40:26;98751.94;;;8.65;85.04
47430;BME280;33181;49.246;7.372;2023-04-07T00:42:52;98748.59;;;8.63;84.99
47430;BME280;33181;49.246;7.372;2023-04-07T00:45:17;98739.91;;;8.62;85.38
47430;BME280;33181;49.246;7.372;2023-04-07T00:47:43;98733.03;;;8.61;85.16
47430;BME280;33181;49.246;7.372;2023-04-07T00:50:10;98732.63;;;8.54;85.23
47430;BME280;33181;49.246;7.372;2023-04-07T00:52:36;98735.94;;;8.56;85.73
47430;BME280;33181;49.246;7.372;2023-04-07T00:55:02;98727.41;;;8.54;85.39
47430;BME280;33181;49.246;7.372;2023-04-07T00:57:31;98720.47;;;8.53;85.45
47430;BME280;33181;49.246;7.372;2023-04-07T00:59:57;98718.06;;;8.50;85.42
47430;BME280;33181;49.246;7.372;2023-04-07T01:02:42;98715.69;;;8.47;85.88
47430;BME280;33181;49.246;7.372;2023-04-07T01:05:30;98714.75;;;8.48;85.83
47430;BME280;33181;49.246;7.372;2023-04-07T01:08:15;98717.81;;;8.42;85.38
47430;BME280;33181;49.246;7.372;2023-04-07T01:10:51;98706.59;;;8.40;85.76
47430;BME280;33181;49.246;7.372;2023-04-07T01:13:37;98703.88;;;8.05;87.49
47430;BME280;33181;49.246;7.372;2023-04-07T01:16:18;98700.66;;;8.01;87.65
47430;BME280;33181;49.246;7.372;2023-04-07T01:18:53;98698.06;;;7.88;88.46
47430;BME280;33181;49.246;7.372;2023-04-07T01:21:19;98703.56;;;7.97;88.36
47430;BME280;33181;49.246;7.372;2023-04-07T01:26:37;98694.53;;;8.13;87.43
47430;BME280;33181;49.246;7.372;2023-04-07T01:29:33;98691.00;;;8.02;87.55
47430;BME280;33181;49.246;7.372;2023-04-07T01:32:04;98690.19;;;8.01;87.53
47430;BME280;33181;49.246;7.372;2023-04-07T01:34:31;98696.03;;;8.05;87.33
47430;BME280;33181;49.246;7.372;2023-04-07T01:37:00;98689.97;;;8.04;86.73
47430;BME280;33181;49.246;7.372;2023-04-07T01:39:27;98697.69;;;8.06;86.49
47430;BME280;33181;49.246;7.372;2023-04-07T01:41:54;98702.69;;;8.09;86.25
47430;BME280;33181;49.246;7.372;2023-04-07T01:44:21;98698.53;;;8.06;86.41
47430;BME280;33181;49.246;7.372;2023-04-07T01:46:49;98696.03;;;8.05;86.79
47430;BME280;33181;49.246;7.372;2023-04-07T01:49:18;98686.28;;;8.07;86.42
47430;BME280;33181;49.246;7.372;2023-04-07T01:51:45;98685.88;;;8.00;86.43
47430;BME280;33181;49.246;7.372;2023-04-07T01:54:16;98681.41;;;7.89;87.27
47430;BME280;33181;49.246;7.372;2023-04-07T01:56:43;98681.63;;;7.86;87.64
47430;BME280;33181;49.246;7.372;2023-04-07T01:59:10;98679.03;;;7.86;87.43
47430;BME280;33181;49.246;7.372;2023-04-07T02:01:36;98666.91;;;7.85;87.46
47430;BME280;33181;49.246;7.372;2023-04-07T02:06:58;98669.63;;;7.71;87.49
47430;BME280;33181;49.246;7.372;2023-04-07T02:09:26;98672.19;;;7.60;87.98
47430;BME280;33181;49.246;7.372;2023-04-07T02:11:55;98666.53;;;7.28;90.07
47430;BME280;33181;49.246;7.372;2023-04-07T02:14:23;98659.03;;;7.23;90.78
47430;BME280;33181;49.246;7.372;2023-04-07T02:16:50;98661.84;;;7.33;90.28
47430;BME280;33181;49.246;7.372;2023-04-07T02:19:17;98654.41;;;7.39;89.63
47430;BME280;33181;49.246;7.372;2023-04-07T02:21:45;98656.72;;;7.44;88.76
47430;BME280;33181;49.246;7.372;2023-04-07T02:24:11;98664.13;;;7.50;88.18
47430;BME280;33181;49.246;7.372;2023-04-07T02:26:37;98668.44;;;7.51;87.69
47430;BME280;33181;49.246;7.372;2023-04-07T02:29:04;98661.75;;;7.47;87.27
47430;BME280;33181;49.246;7.372;2023-04-07T02:31:30;98662.47;;;7.36;87.81
47430;BME280;33181;49.246;7.372;2023-04-07T02:33:56;98668.84;;;7.32;88.07
47430;BME280;33181;49.246;7.372;2023-04-07T02:36:22;98663.94;;;7.28;88.75
47430;BME280;33181;49.246;7.372;2023-04-07T02:38:48;98665.84;;;7.26;88.77
47430;BME280;33181;49.246;7.372;2023-04-07T02:41:14;98660.00;;;7.22;88.61
47430;BME280;33181;49.246;7.372;2023-04-07T02:43:39;98666.34;;;7.05;89.05
47430;BME280;33181;49.246;7.372;2023-04-07T02:46:05;98670.19;;;7.00;88.94
47430;BME280;33181;49.246;7.372;2023-04-07T02:48:31;98668.84;;;6.94;89.33
47430;BME280;33181;49.246;7.372;2023-04-07T02:51:01;98664.66;;;6.91;89.32
47430;BME280;33181;49.246;7.372;2023-04-07T02:53:26;98662.13;;;6.90;89.36
47430;BME280;33181;49.246;7.372;2023-04-07T02:55:52;98657.97;;;6.87;89.17
47430;BME280;33181;49.246;7.372;2023-04-07T02:58:20;98667.88;;;6.82;88.96
47430;BME280;33181;49.246;7.372;2023-04-07T03:00:48;98669.53;;;6.70;89.41
47430;BME280;33181;49.246;7.372;2023-04-07T03:03:14;98656.59;;;6.69;89.25
47430;BME280;33181;49.246;7.372;2023-04-07T03:05:39;98663.25;;;6.60;89.35
47430;BME280;33181;49.246;7.372;2023-04-07T03:08:08;98662.78;;;6.41;89.97
47430;BME280;33181;49.246;7.372;2023-04-07T03:10:33;98655.25;;;6.36;90.37
47430;BME280;33181;49.246;7.372;2023-04-07T03:13:00;98661.19;;;6.38;90.07
47430;BME280;33181;49.246;7.372;2023-04-07T03:15:26;98661.09;;;6.40;89.67
47430;BME280;33181;49.246;7.372;2023-04-07T03:17:51;98659.97;;;6.44;89.66
47430;BME280;33181;49.246;7.372;2023-04-07T03:20:17;98648.91;;;6.40;89.08
47430;BME280;33181;49.246;7.372;2023-04-07T03:22:43;98657.75;;;6.38;88.70
47430;BME280;33181;49.246;7.372;2023-04-07T03:25:12;98663.47;;;6.30;88.33
47430;BME280;33181;49.246;7.372;2023-04-07T03:27:37;98662.75;;;6.28;88.09
47430;BME280;33181;49.246;7.372;2023-04-07T03:30:04;98668.16;;;6.25;88.26
47430;BME280;33181;49.246;7.372;2023-04-07T03:32:29;98670.72;;;6.12;88.59
47430;BME280;33181;49.246;7.372;2023-04-07T03:34:55;98669.59;;;6.02;88.92
47430;BME280;33181;49.246;7.372;2023-04-07T03:37:21;98672.31;;;6.00;88.63
47430;BME280;33181;49.246;7.372;2023-04-07T03:39:47;98666.47;;;5.97;89.07
47430;BME280;33181;49.246;7.372;2023-04-07T03:42:13;98663.94;;;5.95;90.11
47430;BME280;33181;49.246;7.372;2023-04-07T03:44:39;98665.53;;;5.98;89.85
47430;BME280;33181;49.246;7.372;2023-04-07T03:47:04;98679.31;;;6.00;89.94
47430;BME280;33181;49.246;7.372;2023-04-07T03:49:30;98683.50;;;6.02;89.24
47430;BME280;33181;49.246;7.372;2023-04-07T03:51:57;98677.41;;;6.02;88.87
47430;BME280;33181;49.246;7.372;2023-04-07T03:54:22;98675.56;;;6.04;88.83
47430;BME280;33181;49.246;7.372;2023-04-07T03:56:48;98679.13;;;6.03;88.73
47430;BME280;33181;49.246;7.372;2023-04-07T03:59:14;98677.34;;;6.03;88.47
47430;BME280;33181;49.246;7.372;2023-04-07T04:01:40;98684.59;;;5.98;88.38
47430;BME280;33181;49.246;7.372;2023-04-07T04:04:06;98677.09;;;5.94;88.25
47430;BME280;33181;49.246;7.372;2023-04-07T04:06:32;98676.41;;;5.90;88.76
47430;BME280;33181;49.246;7.372;2023-04-07T04:08:57;98673.88;;;5.89;88.88
47430;BME280;33181;49.246;7.372;2023-04-07T04:11:23;98672.22;;;5.88;89.06
47430;BME280;33181;49.246;7.372;2023-04-07T04:13:49;98671.09;;;5.92;89.12
47430;BME280;33181;49.246;7.372;2023-04-07T04:16:15;98672.31;;;6.00;89.81
47430;BME280;33181;49.246;7.372;2023-04-07T04:18:41;98676.13;;;6.09;90.08
47430;BME280;33181;49.246;7.372;2023-04-07T04:21:07;98672.97;;;6.04;89.81
47430;BME280;33181;49.246;7.372;2023-04-07T04:23:33;98679.69;;;5.94;90.20
47430;BME280;33181;49.246;7.372;2023-04-07T04:25:59;98677.09;;;5.94;90.13
47430;BME280;33181;49.246;7.372;2023-04-07T04:28:28;98669.72;;;6.00;90.40
47430;BME280;33181;49.246;7.372;2023-04-07T04:30:54;98672.75;;;6.07;90.53
47430;BME280;33181;49.246;7.372;2023-04-07T04:33:20;98675.53;;;6.18;90.40
47430;BME280;33181;49.246;7.372;2023-04-07T04:35:46;98676.91;;;6.24;90.28
47430;BME280;33181;49.246;7.372;2023-04-07T04:38:12;98673.88;;;6.30;90.33
47430;BME280;33181;49.246;7.372;2023-04-07T04:40:37;98670.06;;;6.36;90.32
47430;BME280;33181;49.246;7.372;2023-04-07T04:43:03;98672.78;;;6.34;89.62
47430;BME280;33181;49.246;7.372;2023-04-07T04:45:32;98673.22;;;6.41;90.04
47430;BME280;33181;49.246;7.372;2023-04-07T04:47:58;98676.47;;;6.44;90.09
47430;BME280;33181;49.246;7.372;2023-04-07T04:50:24;98678.88;;;6.47;90.16
47430;BME280;33181;49.246;7.372;2023-04-07T04:52:49;98672.47;;;6.39;89.70
47430;BME280;33181;49.246;7.372;2023-04-07T04:55:15;98678.63;;;6.38;89.70
47430;BME280;33181;49.246;7.372;2023-04-07T04:57:41;98668.09;;;6.39;89.47
47430;BME280;33181;49.246;7.372;2023-04-07T05:00:07;98675.81;;;6.41;89.53
47430;BME280;33181;49.246;7.372;2023-04-07T05:02:35;98669.59;;;6.43;89.52
47430;BME280;33181;49.246;7.372;2023-04-07T05:05:01;98672.97;;;6.31;89.65
47430;BME280;33181;49.246;7.372;2023-04-07T05:07:27;98668.69;;;6.03;91.11
47430;BME280;33181;49.246;7.372;2023-04-07T05:09:53;98668.13;;;5.98;92.01
47430;BME280;33181;49.246;7.372;2023-04-07T05:12:19;98674.81;;;6.02;91.57
47430;BME280;33181;49.246;7.372;2023-04-07T05:14:45;98671.63;;;6.11;91.77
47430;BME280;33181;49.246;7.372;2023-04-07T05:17:10;98668.53;;;6.19;91.47
47430;BME280;33181;49.246;7.372;2023-04-07T05:19:36;98672.63;;;6.23;91.48
47430;BME280;33181;49.246;7.372;2023-04-07T05:22:02;98662.81;;;6.26;91.15
47430;BME280;33181;49.246;7.372;2023-04-07T05:24:28;98662.53;;;6.31;90.65
47430;BME280;33181;49.246;7.372;2023-04-07T05:26:54;98660.25;;;6.66;92.38
47430;BME280;33181;49.246;7.372;2023-04-07T05:29:22;98651.72;;;7.28;93.60
47430;BME280;33181;49.246;7.372;2023-04-07T05:31:47;98650.00;;;7.53;88.34
47430;BME280;33181;49.246;7.372;2023-04-07T05:34:15;98649.94;;;7.78;84.46
47430;BME280;33181;49.246;7.372;2023-04-07T05:36:41;98663.19;;;8.01;83.60
47430;BME280;33181;49.246;7.372;2023-04-07T05:39:07;98660.09;;;8.44;82.82
47430;BME280;33181;49.246;7.372;2023-04-07T05:41:33;98657.16;;;8.84;80.67
47430;BME280;33181;49.246;7.372;2023-04-07T05:43:59;98653.41;;;9.33;78.10
47430;BME280;33181;49.246;7.372;2023-04-07T05:46:24;98661.84;;;9.92;75.18
47430;BME280;33181;49.246;7.372;2023-04-07T05:48:50;98646.97;;;10.36;70.95
47430;BME280;33181;49.246;7.372;2023-04-07T05:51:16;98652.72;;;10.83;68.06
47430;BME280;33181;49.246;7.372;2023-04-07T05:53:42;98646.53;;;11.67;66.89
47430;BME280;33181;49.246;7.372;2023-04-07T05:56:07;98658.88;;;12.16;63.88
47430;BME280;33181;49.246;7.372;2023-04-07T05:58:33;98659.88;;;12.64;63.14
47430;BME280;33181;49.246;7.372;2023-04-07T06:00:59;98667.38;;;12.78;61.51
47430;BME280;33181;49.246;7.372;2023-04-07T06:03:25;98664.03;;;12.66;60.35
47430;BME280;33181;49.246;7.372;2023-04-07T06:05:51;98665.16;;;12.44;61.17
47430;BME280;33181;49.246;7.372;2023-04-07T06:08:16;98670.66;;;12.12;62.00
47430;BME280;33181;49.246;7.372;2023-04-07T06:10:42;98670.88;;;11.90;62.76
47430;BME280;33181;49.246;7.372;2023-04-07T06:13:08;98668.31;;;11.78;63.51
47430;BME280;33181;49.246;7.372;2023-04-07T06:15:34;98666.88;;;11.65;64.26
47430;BME280;33181;49.246;7.372;2023-04-07T06:18:00;98664.28;;;11.44;64.49
47430;BME280;33181;49.246;7.372;2023-04-07T06:20:25;98678.50;;;11.10;66.16
47430;BME280;33181;49.246;7.372;2023-04-07T06:22:54;98671.94;;;10.84;66.56
47430;BME280;33181;49.246;7.372;2023-04-07T06:25:19;98672.81;;;10.52;68.60
47430;BME280;33181;49.246;7.372;2023-04-07T06:27:45;98674.84;;;10.49;69.42
47430;BME280;33181;49.246;7.372;2023-04-07T06:30:12;98675.16;;;10.66;70.06
47430;BME280;33181;49.246;7.372;2023-04-07T06:32:37;98675.69;;;10.81;69.72
47430;BME280;33181;49.246;7.372;2023-04-07T06:35:04;98670.00;;;10.97;69.64
47430;BME280;33181;49.246;7.372;2023-04-07T06:37:29;98674.41;;;11.18;69.64
47430;BME280;33181;49.246;7.372;2023-04-07T06:39:56;98677.44;;;11.44;69.01
47430;BME280;33181;49.246;7.372;2023-04-07T06:42:21;98673.50;;;11.59;67.98
47430;BME280;33181;49.246;7.372;2023-04-07T06:44:47;98680.06;;;11.74;67.37
47430;BME280;33181;49.246;7.372;2023-04-07T06:47:13;98685.44;;;12.03;66.96
47430;BME280;33181;49.246;7.372;2023-04-07T06:49:39;98686.88;;;12.08;65.83
47430;BME280;33181;49.246;7.372;2023-04-07T06:52:05;98691.19;;;12.28;66.09
47430;BME280;33181;49.246;7.372;2023-04-07T06:54:30;98685.94;;;12.57;65.27
47430;BME280;33181;49.246;7.372;2023-04-07T06:56:56;98685.69;;;12.80;63.80
47430;BME280;33181;49.246;7.372;2023-04-07T06:59:22;98684.44;;;12.93;64.04
47430;BME280;33181;49.246;7.372;2023-04-07T07:01:48;98692.84;;;13.16;63.33
47430;BME280;33181;49.246;7.372;2023-04-07T07:04:14;98689.81;;;12.24;64.88
47430;BME280;33181;49.246;7.372;2023-04-07T07:06:39;98698.38;;;12.16;65.57
47430;BME280;33181;49.246;7.372;2023-04-07T07:09:05;98694.34;;;12.12;66.34
47430;BME280;33181;49.246;7.372;2023-04-07T07:11:31;98700.69;;;12.00;67.07
47430;BME280;33181;49.246;7.372;2023-04-07T07:13:57;98700.28;;;11.95;67.21
47430;BME280;33181;49.246;7.372;2023-04-07T07:16:23;98696.63;;;11.86;68.21
47430;BME280;33181;49.246;7.372;2023-04-07T07:18:49;98701.56;;;11.79;68.58
47430;BME280;33181;49.246;7.372;2023-04-07T07:21:17;98700.78;;;11.37;69.60
47430;BME280;33181;49.246;7.372;2023-04-07T07:23:43;98706.72;;;11.08;70.94
47430;BME280;33181;49.246;7.372;2023-04-07T07:26:09;98696.91;;;11.10;71.96
47430;BME280;33181;49.246;7.372;2023-04-07T07:28:35;98700.22;;;11.12;72.09
47430;BME280;33181;49.246;7.372;2023-04-07T07:31:10;98704.81;;;10.57;73.34
47430;BME280;33181;49.246;7.372;2023-04-07T07:33:38;98700.69;;;10.43;74.46
47430;BME280;33181;49.246;7.372;2023-04-07T07:36:09;98709.81;;;10.49;74.74
47430;BME280;33181;49.246;7.372;2023-04-07T07:38:35;98705.78;;;10.45;75.74
47430;BME280;33181;49.246;7.372;2023-04-07T07:41:01;98711.28;;;10.53;76.15
47430;BME280;33181;49.246;7.372;2023-04-07T07:43:27;98714.84;;;10.52;75.52
47430;BME280;33181;49.246;7.372;2023-04-07T07:45:53;98712.44;;;10.49;76.04
47430;BME280;33181;49.246;7.372;2023-04-07T07:48:19;98707.38;;;10.68;75.83
47430;BME280;33181;49.246;7.372;2023-04-07T07:50:45;98706.75;;;10.76;75.45
47430;BME280;33181;49.246;7.372;2023-04-07T07:53:11;98713.19;;;10.51;76.12
47430;BME280;33181;49.246;7.372;2023-04-07T07:55:37;98717.28;;;10.33;76.66
47430;BME280;33181;49.246;7.372;2023-04-07T07:58:03;98714.41;;;10.36;77.65
47430;BME280;33181;49.246;7.372;2023-04-07T08:00:28;98721.53;;;10.45;77.77
47430;BME280;33181;49.246;7.372;2023-04-07T08:02:54;98717.50;;;10.41;78.10
47430;BME280;33181;49.246;7.372;2023-04-07T08:05:20;98718.34;;;10.41;77.46
47430;BME280;33181;49.246;7.372;2023-04-07T08:07:46;98719.06;;;10.43;77.50
47430;BME280;33181;49.246;7.372;2023-04-07T08:10:14;98717.84;;;10.48;77.60
47430;BME280;33181;49.246;7.372;2023-04-07T08:12:40;98721.53;;;10.56;77.74
47430;BME280;33181;49.246;7.372;2023-04-07T08:15:06;98729.28;;;10.58;77.93
47430;BME280;33181;49.246;7.372;2023-04-07T08:17:35;98726.56;;;10.48;78.29
47430;BME280;33181;49.246;7.372;2023-04-07T08:20:01;98729.31;;;10.47;78.39
47430;BME280;33181;49.246;7.372;2023-04-07T08:22:28;98729.44;;;10.45;78.02
47430;BME280;33181;49.246;7.372;2023-04-07T08:24:54;98731.09;;;10.46;78.16
47430;BME280;33181;49.246;7.372;2023-04-07T08:27:19;98739.44;;;10.51;77.87
47430;BME280;33181;49.246;7.372;2023-04-07T08:30:01;98737.19;;;10.47;77.93
47430;BME280;33181;49.246;7.372;2023-04-07T08:32:35;98738.13;;;10.46;78.18
47430;BME280;33181;49.246;7.372;2023-04-07T08:35:01;98744.56;;;10.53;78.26
47430;BME280;33181;49.246;7.372;2023-04-07T08:37:27;98745.16;;;10.56;78.42
47430;BME280;33181;49.246;7.372;2023-04-07T08:39:53;98739.19;;;10.54;78.10
47430;BME280;33181;49.246;7.372;2023-04-07T08:42:19;98745.03;;;10.58;78.31
47430;BME280;33181;49.246;7.372;2023-04-07T08:44:47;98747.66;;;10.58;78.09
47430;BME280;33181;49.246;7.372;2023-04-07T08:47:16;98751.75;;;10.51;77.82
47430;BME280;33181;49.246;7.372;2023-04-07T08:49:44;98750.09;;;10.38;77.92
47430;BME280;33181;49.246;7.372;2023-04-07T08:52:14;98749.63;;;10.33;77.64
47430;BME280;33181;49.246;7.372;2023-04-07T08:54:41;98755.94;;;10.42;78.20
47430;BME280;33181;49.246;7.372;2023-04-07T08:57:08;98757.63;;;10.32;78.46
47430;BME280;33181;49.246;7.372;2023-04-07T08:59:35;98757.94;;;10.50;78.23
47430;BME280;33181;49.246;7.372;2023-04-07T09:02:01;98759.47;;;10.52;78.18
47430;BME280;33181;49.246;7.372;2023-04-07T09:04:29;98764.81;;;10.62;77.97
47430;BME280;33181;49.246;7.372;2023-04-07T09:06:55;98766.03;;;10.69;78.15
47430;BME280;33181;49.246;7.372;2023-04-07T09:09:21;98771.59;;;10.76;76.48
47430;BME280;33181;49.246;7.372;2023-04-07T09:11:48;98764.09;;;10.71;75.64
47430;BME280;33181;49.246;7.372;2023-04-07T09:14:15;98767.44;;;10.73;75.49
47430;BME280;33181;49.246;7.372;2023-04-07T09:16:43;98771.03;;;10.72;75.24
47430;BME280;33181;49.246;7.372;2023-04-07T09:19:08;98766.78;;;10.81;75.42
47430;BME280;33181;49.246;7.372;2023-04-07T09:21:51;98770.63;;;10.77;75.44
47430;BME280;33181;49.246;7.372;2023-04-07T09:24:28;98775.19;;;10.75;76.13
47430;BME280;33181;49.246;7.372;2023-04-07T09:27:13;98778.75;;;10.85;75.94
47430;BME280;33181;49.246;7.372;2023-04-07T09:29:42;98781.78;;;11.01;75.36
47430;BME280;33181;49.246;7.372;2023-04-07T09:32:10;98782.94;;;11.08;74.63
47430;BME280;33181;49.246;7.372;2023-04-07T09:34:39;98788.59;;;11.04;74.44
47430;BME280;33181;49.246;7.372;2023-04-07T09:37:07;98783.00;;;10.97;75.43
47430;BME280;33181;49.246;7.372;2023-04-07T09:39:51;98783.53;;;10.80;75.70
47430;BME280;33181;49.246;7.372;2023-04-07T09:42:19;98784.00;;;10.85;76.36
47430;BME280;33181;49.246;7.372;2023-04-07T09:44:46;98783.00;;;10.97;76.53
47430;BME280;33181;49.246;7.372;2023-04-07T09:47:11;98783.59;;;11.01;77.31
47430;BME280;33181;49.246;7.372;2023-04-07T09:49:52;98785.09;;;11.03;77.04
47430;BME280;33181;49.246;7.372;2023-04-07T09:52:24;98784.50;;;11.11;77.63
47430;BME280;33181;49.246;7.372;2023-04-07T09:54:50;98776.59;;;11.11;76.99
47430;BME280;33181;49.246;7.372;2023-04-07T09:57:17;98778.97;;;11.14;76.41
47430;BME280;33181;49.246;7.372;2023-04-07T09:59:43;98780.97;;;11.22;77.16
47430;BME280;33181;49.246;7.372;2023-04-07T10:02:10;98777.50;;;11.21;76.97
47430;BME280;33181;49.246;7.372;2023-04-07T10:04:38;98779.31;;;11.21;76.34
47430;BME280;33181;49.246;7.372;2023-04-07T10:07:05;98779.94;;;11.34;75.93
47430;BME280;33181;49.246;7.372;2023-04-07T10:09:31;98783.03;;;11.39;75.48
47430;BME280;33181;49.246;7.372;2023-04-07T10:11:58;98779.19;;;11.43;74.90
47430;BME280;33181;49.246;7.372;2023-04-07T10:14:30;98784.44;;;11.64;75.30
47430;BME280;33181;49.246;7.372;2023-04-07T10:17:02;98783.47;;;11.65;74.03
47430;BME280;33181;49.246;7.372;2023-04-07T10:19:32;98778.94;;;11.67;73.18
47430;BME280;33181;49.246;7.372;2023-04-07T10:21:59;98788.03;;;11.63;71.89
47430;BME280;33181;49.246;7.372;2023-04-07T10:24:43;98785.91;;;11.78;72.41
47430;BME280;33181;49.246;7.372;2023-04-07T10:27:18;98781.81;;;11.85;72.16
47430;BME280;33181;49.246;7.372;2023-04-07T10:29:48;98786.63;;;11.80;72.54
47430;BME280;33181;49.246;7.372;2023-04-07T10:32:16;98789.19;;;11.91;72.31
47430;BME280;33181;49.246;7.372;2023-04-07T10:37:19;98791.50;;;11.85;71.69
47430;BME280;33181;49.246;7.372;2023-04-07T10:39:50;98790.44;;;11.97;71.85
47430;BME280;33181;49.246;7.372;2023-04-07T10:42:54;98788.47;;;12.20;71.56
47430;BME280;33181;49.246;7.372;2023-04-07T10:48:13;98785.00;;;12.19;69.95
47430;BME280;33181;49.246;7.372;2023-04-07T10:50:39;98788.13;;;12.34;69.92
47430;BME280;33181;49.246;7.372;2023-04-07T10:53:12;98792.28;;;12.37;67.91
47430;BME280;33181;49.246;7.372;2023-04-07T10:55:53;98792.41;;;12.35;67.19
47430;BME280;33181;49.246;7.372;2023-04-07T10:58:26;98791.53;;;12.25;66.86
47430;BME280;33181;49.246;7.372;2023-04-07T11:01:15;98796.69;;;11.75;69.11
47430;BME280;33181;49.246;7.372;2023-04-07T11:03:56;98793.94;;;11.55;69.64
47430;BME280;33181;49.246;7.372;2023-04-07T11:06:22;98796.25;;;11.49;71.25
47430;BME280;33181;49.246;7.372;2023-04-07T11:08:49;98797.75;;;11.42;72.87
47430;BME280;33181;49.246;7.372;2023-04-07T11:11:35;98798.56;;;11.42;72.99
47430;BME280;33181;49.246;7.372;2023-04-07T11:14:03;98794.44;;;11.28;72.84
47430;BME280;33181;49.246;7.372;2023-04-07T11:16:41;98801.75;;;11.25;72.88
47430;BME280;33181;49.246;7.372;2023-04-07T11:19:07;98800.34;;;11.21;73.65
47430;BME280;33181;49.246;7.372;2023-04-07T11:21:33;98803.78;;;11.00;74.90
47430;BME280;33181;49.246;7.372;2023-04-07T11:24:01;98808.06;;;11.01;74.43
47430;BME280;33181;49.246;7.372;2023-04-07T11:26:26;98808.66;;;11.05;74.39
47430;BME280;33181;49.246;7.372;2023-04-07T11:28:54;98799.88;;;11.16;73.96
47430;BME280;33181;49.246;7.372;2023-04-07T11:31:26;98802.56;;;11.25;73.90
47430;BME280;33181;49.246;7.372;2023-04-07T11:33:54;98804.59;;;11.33;73.17
47430;BME280;33181;49.246;7.372;2023-04-07T11:36:38;98804.88;;;11.51;72.87
47430;BME280;33181;49.246;7.372;2023-04-07T11:39:04;98806.59;;;11.62;72.67
47430;BME280;33181;49.246;7.372;2023-04-07T11:41:32;98804.06;;;11.81;71.81
47430;BME280;33181;49.246;7.372;2023-04-07T11:44:09;98811.13;;;12.01;70.88
47430;BME280;33181;49.246;7.372;2023-04-07T11:49:21;98810.53;;;12.28;70.82
47430;BME280;33181;49.246;7.372;2023-04-07T11:52:00;98806.13;;;12.39;70.20
47430;BME280;33181;49.246;7.372;2023-04-07T11:54:47;98811.47;;;12.18;69.72
47430;BME280;33181;49.246;7.372;2023-04-07T11:57:27;98814.97;;;11.97;69.54
47430;BME280;33181;49.246;7.372;2023-04-07T12:00:10;98807.72;;;11.69;70.75
47430;BME280;33181;49.246;7.372;2023-04-07T12:02:36;98809.16;;;11.52;71.54
47430;BME280;33181;49.246;7.372;2023-04-07T12:05:06;98815.50;;;11.49;71.88
47430;BME280;33181;49.246;7.372;2023-04-07T12:07:38;98810.69;;;11.54;71.12
47430;BME280;33181;49.246;7.372;2023-04-07T12:10:19;98809.47;;;11.58;70.25
47430;BME280;33181;49.246;7.372;2023-04-07T12:12:45;98816.50;;;11.79;69.65
47430;BME280;33181;49.246;7.372;2023-04-07T12:15:11;98802.97;;;11.83;68.73
47430;BME280;33181;49.246;7.372;2023-04-07T12:17:43;98808.06;;;11.96;68.59
47430;BME280;33181;49.246;7.372;2023-04-07T12:20:10;98812.72;;;12.14;68.50
47430;BME280;33181;49.246;7.372;2023-04-07T12:22:36;98807.13;;;12.07;68.56
47430;BME280;33181;49.246;7.372;2023-04-07T12:25:02;98809.94;;;12.15;68.37
47430;BME280;33181;49.246;7.372;2023-04-07T12:27:28;98801.50;;;12.21;67.35
47430;BME280;33181;49.246;7.372;2023-04-07T12:29:54;98809.59;;;12.29;67.02
47430;BME280;33181;49.246;7.372;2023-04-07T12:32:20;98809.44;;;12.31;66.75
47430;BME280;33181;49.246;7.372;2023-04-07T12:34:45;98814.19;;;12.37;67.06
47430;BME280;33181;49.246;7.372;2023-04-07T12:37:12;98822.44;;;12.23;66.38
47430;BME280;33181;49.246;7.372;2023-04-07T12:39:38;98813.66;;;12.13;67.07
47430;BME280;33181;49.246;7.372;2023-04-07T12:42:06;98811.78;;;12.24;67.62
47430;BME280;33181;49.246;7.372;2023-04-07T12:44:33;98809.19;;;12.34;66.93
47430;BME280;33181;49.246;7.372;2023-04-07T12:47:00;98814.22;;;12.47;66.87
47430;BME280;33181;49.246;7.372;2023-04-07T12:49:25;98815.47;;;12.52;65.93
47430;BME280;33181;49.246;7.372;2023-04-07T12:51:51;98817.00;;;12.45;65.85
47430;BME280;33181;49.246;7.372;2023-04-07T12:54:17;98814.91;;;12.39;66.38
47430;BME280;33181;49.246;7.372;2023-04-07T12:56:45;98810.75;;;12.46;65.82
47430;BME280;33181;49.246;7.372;2023-04-07T12:59:12;98815.56;;;12.41;65.57
47430;BME280;33181;49.246;7.372;2023-04-07T13:01:38;98814.28;;;11.95;66.38
47430;BME280;33181;49.246;7.372;2023-04-07T13:04:05;98815.81;;;11.98;67.96
47430;BME280;33181;49.246;7.372;2023-04-07T13:06:31;98815.88;;;12.08;68.03
47430;BME280;33181;49.246;7.372;2023-04-07T13:08:57;98817.22;;;12.33;67.47
47430;BME280;33181;49.246;7.372;2023-04-07T13:11:23;98811.13;;;12.42;66.98
47430;BME280;33181;49.246;7.372;2023-04-07T13:13:48;98815.63;;;12.61;67.25
47430;BME280;33181;49.246;7.372;2023-04-07T13:16:14;98815.09;;;12.67;67.60
47430;BME280;33181;49.246;7.372;2023-04-07T13:18:40;98815.69;;;12.80;67.39
47430;BME280;33181;49.246;7.372;2023-04-07T13:21:06;98814.25;;;12.66;67.59
47430;BME280;33181;49.246;7.372;2023-04-07T13:23:32;98815.16;;;12.36;68.01